Time;durP1;ratioP1;P1;durP2;ratioP2;P2;SDS_P1;SDS_P2;PMS_P1;PMS_P2;Temp;Humidity;BMP_temperature;BMP_pressure;BME280_temperature;BME280_humidity;BME280_pressure;Samples;Min_cycle;Max_cycle;Signal;HPM_P1;HPM_P2
2021/06/08 11:51:01;;;;;;;0.00;0.00;;;;;;;;;;5114507;27;20787;-80
2021/06/08 11:53:27;;;;;;;0.00;0.00;;;;;;;;;;5094172;28;20189;-79
2021/06/08 11:56:05;;;;;;;0.00;0.00;;;;;;;;;;5091489;28;20020;-78
2021/06/08 11:58:32;;;;;;;0.00;0.00;;;;;;;;;;5098846;28;20043;-81
2021/06/08 12:00:59;;;;;;;0.00;0.00;;;;;;;;;;5097920;28;20101;-80
2021/06/08 12:03:33;;;;;;;0.00;0.00;;;;;;;;;;5093781;28;20021;-78
2021/06/08 12:05:59;;;;;;;0.00;0.00;;;;;;;;;;5090332;28;20024;-85
2021/06/08 12:08:27;;;;;;;0.00;0.00;;;;;;;;;;5085382;28;20261;-81
2021/06/08 12:10:54;;;;;;;0.00;0.00;;;;;;;;;;5080021;28;20052;-80
2021/06/08 12:13:31;;;;;;;0.00;0.00;;;;;;;;;;5104658;28;20028;-81
2021/06/08 12:15:57;;;;;;;0.00;0.00;;;;;;;;;;5098352;28;20549;-81
2021/06/08 12:18:38;;;;;;;0.00;0.00;;;;;;;;;;5091977;28;20059;-81
2021/06/08 12:21:14;;;;;;;0.00;0.00;;;;;;;;;;5084565;28;20558;-81
2021/06/08 12:23:40;;;;;;;0.00;0.00;;;;;;;;;;5082453;28;20016;-84
2021/06/08 12:26:08;;;;;;;0.00;0.00;;;;;;;;;;5088374;28;20024;-82
2021/06/08 12:28:34;;;;;;;0.00;0.00;;;;;;;;;;5085014;28;20024;-81
2021/06/08 12:31:14;;;;;;;0.00;0.00;;;;;;;;;;5091707;28;20038;-81
2021/06/08 12:33:41;;;;;;;0.00;0.00;;;;;;;;;;5100101;28;20467;-81
2021/06/08 12:36:08;;;;;;;0.00;0.00;;;;;;;;;;5101208;28;20019;-83
2021/06/08 12:38:35;;;;;;;0.00;0.00;;;;;;;;;;5099848;28;20434;-81
2021/06/08 12:41:01;;;;;;;0.00;0.00;;;;;;;;;;5102091;28;20165;-82
2021/06/08 12:43:27;;;;;;;0.00;0.00;;;;;;;;;;5098949;28;20028;-82
2021/06/08 12:45:58;;;;;;;0.00;0.00;;;;;;;;;;5103719;28;20024;-82
2021/06/08 12:48:24;;;;;;;0.00;0.00;;;;;;;;;;5098663;28;20397;-84
2021/06/08 12:50:50;;;;;;;0.00;0.00;;;;;;;;;;5104024;28;20513;-84
2021/06/08 12:53:16;;;;;;;;;;;;;;;;;;5097796;28;20081;-84
2021/06/08 12:55:46;;;;;;;0.00;0.00;;;;;;;;;;5102606;28;20367;-82
2021/06/08 12:58:12;;;;;;;0.00;0.00;;;;;;;;;;5097356;28;20030;-83
2021/06/08 13:00:38;;;;;;;0.00;0.00;;;;;;;;;;5098611;28;20422;-83
2021/06/08 13:03:05;;;;;;;0.00;0.00;;;;;;;;;;5084775;28;20027;-83
2021/06/08 13:05:33;;;;;;;0.00;0.00;;;;;;;;;;5090494;28;20028;-84
2021/06/08 13:07:59;;;;;;;0.00;0.00;;;;;;;;;;5084517;28;20109;-83
2021/06/08 13:10:31;;;;;;;0.38;0.10;;;;;;;;;;5090132;28;20027;-83
2021/06/08 13:12:57;;;;;;;0.38;0.35;;;;;;;;;;5084187;28;20020;-83
2021/06/08 13:15:31;;;;;;;15.90;1.98;;;;;;;;;;5088914;28;20017;-82
2021/06/08 13:18:14;;;;;;;1.05;1.00;;;;;;;;;;5084191;28;20488;-85
2021/06/08 13:20:47;;;;;;;0.10;0.10;;;;;;;;;;5087383;28;20065;-81
2021/06/08 13:23:19;;;;;;;0.73;0.73;;;;;;;;;;5081501;28;20074;-83
2021/06/08 13:26:03;;;;;;;0.98;0.98;;;;;;;;;;5088648;28;20059;-83
2021/06/08 13:28:29;;;;;;;0.10;0.10;;;;;;;;;;5078320;28;20432;-83
2021/06/08 13:31:03;;;;;;;0.10;0.10;;;;;;;;;;5088768;28;20028;-84
2021/06/08 13:33:29;;;;;;;0.00;0.00;;;;;;;;;;5084549;28;20270;-82
2021/06/08 13:35:55;;;;;;;0.00;0.00;;;;;;;;;;5087551;28;20110;-82
2021/06/08 13:38:22;;;;;;;0.00;0.00;;;;;;;;;;5084919;28;20028;-82
2021/06/08 13:40:49;;;;;;;;;;;;;;;;;;5089533;28;20308;-83
2021/06/08 13:43:16;;;;;;;0.10;0.10;;;;;;;;;;5075096;28;19911;-83
2021/06/08 13:45:49;;;;;;;0.05;0.05;;;;;;;;;;5089252;28;20031;-83
2021/06/08 13:48:48;;;;;;;0.00;0.00;;;;;;;;;;5074937;28;20023;-84
2021/06/08 13:51:14;;;;;;;0.10;0.10;;;;;;;;;;5080653;28;20056;-84
2021/06/08 13:53:41;;;;;;;0.65;0.65;;;;;;;;;;5085875;28;20024;-83
2021/06/08 13:56:25;;;;;;;0.03;0.03;;;;;;;;;;5085148;28;20073;-82
2021/06/08 14:01:49;;;;;;;0.10;0.10;;;;;;;;;;5082106;28;20043;-83
2021/06/08 14:04:19;;;;;;;0.38;0.38;;;;;;;;;;5091970;28;20031;-83
2021/06/08 14:06:50;;;;;;;0.10;0.10;;;;;;;;;;5081116;28;20062;-83
2021/06/08 14:09:16;;;;;;;0.10;0.10;;;;;;;;;;5090431;28;20027;-83
2021/06/08 14:11:42;;;;;;;;;;;;;;;;;;5081790;28;20024;-82
2021/06/08 14:14:12;;;;;;;3.53;1.20;;;;;;;;;;5089975;28;19911;-83
2021/06/08 14:16:38;;;;;;;0.10;0.10;;;;;;;;;;5080595;28;20028;-83
2021/06/08 14:19:04;;;;;;;0.10;0.10;;;;;;;;;;5089847;28;20085;-83
2021/06/08 14:21:30;;;;;;;0.10;0.10;;;;;;;;;;5083257;28;20093;-84
2021/06/08 14:23:58;;;;;;;0.30;0.30;;;;;;;;;;5087687;28;20028;-83
2021/06/08 14:26:27;;;;;;;0.10;0.10;;;;;;;;;;5083562;28;20112;-82
2021/06/08 14:28:53;;;;;;;0.10;0.10;;;;;;;;;;5088230;28;20073;-83
2021/06/08 14:31:19;;;;;;;0.60;0.60;;;;;;;;;;5083227;28;20028;-83
2021/06/08 14:33:46;;;;;;;0.70;0.30;;;;;;;;;;5087824;28;20023;-83
2021/06/08 14:36:12;;;;;;;0.20;0.20;;;;;;;;;;5085647;28;20282;-84
2021/06/08 14:38:38;;;;;;;0.40;0.40;;;;;;;;;;5086433;28;20020;-82
2021/06/08 14:41:04;;;;;;;0.47;0.32;;;;;;;;;;5086509;28;20036;-84
2021/06/08 14:43:30;;;;;;;0.10;0.10;;;;;;;;;;5085283;28;20024;-83
2021/06/08 14:45:56;;;;;;;0.10;0.10;;;;;;;;;;5086220;28;20123;-82
2021/06/08 14:48:22;;;;;;;0.10;0.10;;;;;;;;;;5084107;28;20032;-83
2021/06/08 14:50:49;;;;;;;0.10;0.10;;;;;;;;;;5086948;28;20043;-85
2021/06/08 14:53:15;;;;;;;0.10;0.10;;;;;;;;;;5082897;28;20024;-83
2021/06/08 14:55:41;;;;;;;0.35;0.35;;;;;;;;;;5088414;28;20150;-84
2021/06/08 14:58:07;;;;;;;0.10;0.10;;;;;;;;;;5081609;28;20028;-83
2021/06/08 15:00:33;;;;;;;1.92;1.77;;;;;;;;;;5086925;28;20501;-83
2021/06/08 15:02:59;;;;;;;0.30;0.30;;;;;;;;;;5082788;28;20028;-83
2021/06/08 15:05:25;;;;;;;4.38;3.00;;;;;;;;;;5088165;28;20016;-83
2021/06/08 15:07:51;;;;;;;0.15;0.15;;;;;;;;;;5082669;28;20240;-83
2021/06/08 15:10:17;;;;;;;0.10;0.10;;;;;;;;;;5088265;28;20065;-84
2021/06/08 15:12:43;;;;;;;0.10;0.10;;;;;;;;;;5088066;28;20033;-84
2021/06/08 15:15:10;;;;;;;0.17;0.17;;;;;;;;;;5070908;28;20024;-84
2021/06/08 15:17:36;;;;;;;;;;;;;;;;;;5080112;28;20239;-84
2021/06/08 15:20:03;;;;;;;0.38;0.20;;;;;;;;;;5086971;28;19916;-83
2021/06/08 15:22:29;;;;;;;0.10;0.10;;;;;;;;;;5076808;28;20621;-82
2021/06/08 15:24:55;;;;;;;;;;;;;;;;;;5075074;28;20479;-84
2021/06/08 15:27:21;;;;;;;0.00;0.00;;;;;;;;;;5078354;28;20182;-83
2021/06/08 15:29:50;;;;;;;0.10;0.10;;;;;;;;;;5068254;28;20028;-83
2021/06/08 15:32:16;;;;;;;0.05;0.05;;;;;;;;;;5078114;28;20031;-84
2021/06/08 15:34:42;;;;;;;0.52;0.52;;;;;;;;;;5091297;28;20036;-85
2021/06/08 15:37:10;;;;;;;0.10;0.10;;;;;;;;;;5078628;28;20025;-85
2021/06/08 15:39:39;;;;;;;0.10;0.10;;;;;;;;;;5091103;28;20478;-84
2021/06/08 15:42:05;;;;;;;0.10;0.10;;;;;;;;;;5076744;28;20066;-84
2021/06/08 15:44:31;;;;;;;0.20;0.20;;;;;;;;;;5089859;28;20024;-85
2021/06/08 15:46:57;;;;;;;0.10;0.10;;;;;;;;;;5077573;28;20054;-84
2021/06/08 15:49:24;;;;;;;0.13;0.13;;;;;;;;;;5090828;28;20127;-84
2021/06/08 15:51:50;;;;;;;0.10;0.10;;;;;;;;;;5077975;28;20115;-84
2021/06/08 15:54:16;;;;;;;0.10;0.10;;;;;;;;;;5090427;28;20024;-84
2021/06/08 15:56:42;;;;;;;0.85;0.57;;;;;;;;;;5063164;28;20040;-85
2021/06/08 15:59:10;;;;;;;0.10;0.10;;;;;;;;;;5089544;28;20366;-87
2021/06/08 16:01:36;;;;;;;11.30;1.02;;;;;;;;;;5081223;28;20433;-84
2021/06/08 16:04:06;;;;;;;0.10;0.10;;;;;;;;;;5087367;28;20027;-83
2021/06/08 16:06:32;;;;;;;1.02;0.95;;;;;;;;;;5080679;28;20652;-82
2021/06/08 16:08:58;;;;;;;0.10;0.10;;;;;;;;;;5088527;28;20021;-85
2021/06/08 16:11:24;;;;;;;3.22;1.38;;;;;;;;;;5070199;28;20104;-84
2021/06/08 16:13:50;;;;;;;0.08;0.08;;;;;;;;;;5068080;28;20025;-83
2021/06/08 16:16:17;;;;;;;0.30;0.30;;;;;;;;;;5076680;28;20073;-84
2021/06/08 16:18:43;;;;;;;0.00;0.00;;;;;;;;;;5074544;28;20403;-84
2021/06/08 16:21:09;;;;;;;0.10;0.10;;;;;;;;;;5076279;28;20482;-84
2021/06/08 16:23:35;;;;;;;0.52;0.52;;;;;;;;;;5084646;28;20091;-85
2021/06/08 16:26:01;;;;;;;0.10;0.10;;;;;;;;;;5083842;28;20124;-82
2021/06/08 16:28:31;;;;;;;0.10;0.10;;;;;;;;;;5078032;28;20060;-86
2021/06/08 16:30:57;;;;;;;0.10;0.10;;;;;;;;;;5074520;28;20028;-85
2021/06/08 16:33:24;;;;;;;0.00;0.00;;;;;;;;;;5078572;28;20119;-84
2021/06/08 16:35:50;;;;;;;0.00;0.00;;;;;;;;;;5076692;28;20399;-85
2021/06/08 16:38:17;;;;;;;0.10;0.10;;;;;;;;;;5081140;28;20120;-84
2021/06/08 16:40:43;;;;;;;;;;;;;;;;;;5079042;28;20483;-84
2021/06/08 16:43:09;;;;;;;0.10;0.10;;;;;;;;;;5078891;28;19999;-85
2021/06/08 16:45:35;;;;;;;3.50;3.05;;;;;;;;;;5074254;28;20025;-84
2021/06/08 16:48:01;;;;;;;0.10;0.10;;;;;;;;;;5083128;28;20525;-83
2021/06/08 16:50:32;;;;;;;0.10;0.10;;;;;;;;;;5074338;28;20044;-86
2021/06/08 16:53:15;;;;;;;0.10;0.10;;;;;;;;;;5081881;28;20032;-85
2021/06/08 16:55:42;;;;;;;0.28;0.28;;;;;;;;;;5090241;28;20418;-82
2021/06/08 16:58:08;;;;;;;0.70;0.32;;;;;;;;;;5084087;28;20025;-80
2021/06/08 17:00:35;;;;;;;0.10;0.10;;;;;;;;;;5073953;28;20032;-84
2021/06/08 17:03:01;;;;;;;0.10;0.10;;;;;;;;;;5073466;28;20089;-86
2021/06/08 17:05:27;;;;;;;0.00;0.00;;;;;;;;;;5074840;28;20025;-85
2021/06/08 17:07:53;;;;;;;40.83;1.85;;;;;;;;;;5079161;28;20478;-85
2021/06/08 17:10:19;;;;;;;0.00;0.00;;;;;;;;;;5077016;28;20028;-83
2021/06/08 17:12:45;;;;;;;0.00;0.00;;;;;;;;;;5082880;28;20112;-83
2021/06/08 17:15:12;;;;;;;0.10;0.10;;;;;;;;;;5089158;28;20061;-84
2021/06/08 17:17:38;;;;;;;0.10;0.10;;;;;;;;;;5081575;28;20016;-85
2021/06/08 17:20:05;;;;;;;0.10;0.10;;;;;;;;;;5090741;28;20036;-84
2021/06/08 17:22:31;;;;;;;0.00;0.00;;;;;;;;;;5084796;28;20021;-85
2021/06/08 17:24:57;;;;;;;0.10;0.10;;;;;;;;;;5071275;28;20067;-84
2021/06/08 17:27:23;;;;;;;0.80;0.80;;;;;;;;;;5082137;28;20534;-82
2021/06/08 17:29:50;;;;;;;0.40;0.40;;;;;;;;;;5069829;28;20029;-82
2021/06/08 17:32:18;;;;;;;1.00;0.43;;;;;;;;;;5076059;28;20575;-82
2021/06/08 17:34:44;;;;;;;5.22;1.88;;;;;;;;;;5070942;28;20020;-84
2021/06/08 17:37:10;;;;;;;1.08;0.77;;;;;;;;;;5078808;28;20097;-84
2021/06/08 17:39:36;;;;;;;1.47;1.17;;;;;;;;;;5089732;28;20028;-83
2021/06/08 17:42:02;;;;;;;0.10;0.10;;;;;;;;;;5075754;28;20085;-83
2021/06/08 17:44:29;;;;;;;0.00;0.00;;;;;;;;;;5070927;28;20067;-84
2021/06/08 17:46:55;;;;;;;0.10;0.10;;;;;;;;;;5076756;28;20017;-84
2021/06/08 17:49:21;;;;;;;0.13;0.13;;;;;;;;;;5090992;28;20089;-86
2021/06/08 17:51:47;;;;;;;0.10;0.10;;;;;;;;;;5079544;28;20112;-83
2021/06/08 17:54:14;;;;;;;0.10;0.10;;;;;;;;;;5069528;28;20095;-85
2021/06/08 17:56:40;;;;;;;0.30;0.30;;;;;;;;;;5076461;28;20028;-83
2021/06/08 17:59:11;;;;;;;0.10;0.10;;;;;;;;;;5070724;28;20815;-85
2021/06/08 18:01:38;;;;;;;0.57;0.57;;;;;;;;;;5079786;28;20032;-83
2021/06/08 18:04:04;;;;;;;0.10;0.10;;;;;;;;;;5072727;28;20008;-84
2021/06/08 18:06:30;;;;;;;0.90;0.85;;;;;;;;;;5072885;28;20036;-83
2021/06/08 18:08:58;;;;;;;0.13;0.13;;;;;;;;;;5086370;28;20032;-83
2021/06/08 18:11:25;;;;;;;0.77;0.77;;;;;;;;;;5082552;28;20035;-84
2021/06/08 18:13:51;;;;;;;0.22;0.22;;;;;;;;;;5087095;28;20714;-85
2021/06/08 18:16:28;;;;;;;0.10;0.10;;;;;;;;;;5084336;28;20025;-84
2021/06/08 18:19:05;;;;;;;0.10;0.10;;;;;;;;;;5089431;28;20034;-86
2021/06/08 18:21:33;;;;;;;0.73;0.73;;;;;;;;;;5080535;28;20089;-87
2021/06/08 18:23:59;;;;;;;1.30;0.57;;;;;;;;;;5088057;28;20024;-85
2021/06/08 18:26:26;;;;;;;0.10;0.10;;;;;;;;;;5082219;28;20115;-86
2021/06/08 18:28:52;;;;;;;;;;;;;;;;;;5085960;28;20034;-87
2021/06/08 18:31:20;;;;;;;0.10;0.10;;;;;;;;;;5082021;28;19905;-86
2021/06/08 18:33:46;;;;;;;0.10;0.10;;;;;;;;;;5085527;28;20123;-86
2021/06/08 18:36:13;;;;;;;0.10;0.10;;;;;;;;;;5083717;28;20039;-86
2021/06/08 18:38:39;;;;;;;0.22;0.22;;;;;;;;;;5084513;28;20036;-86
2021/06/08 18:41:05;;;;;;;0.10;0.10;;;;;;;;;;5083992;28;20043;-87
2021/06/08 18:43:31;;;;;;;0.30;0.30;;;;;;;;;;5081566;28;20127;-86
2021/06/08 18:45:58;;;;;;;1.07;0.97;;;;;;;;;;5084728;28;20564;-83
2021/06/08 18:48:24;;;;;;;0.10;0.10;;;;;;;;;;5077042;28;20267;-83
2021/06/08 18:50:50;;;;;;;0.10;0.10;;;;;;;;;;5074767;28;20272;-82
2021/06/08 18:53:17;;;;;;;0.10;0.10;;;;;;;;;;5056950;28;20025;-81
2021/06/08 18:55:43;;;;;;;0.13;0.13;;;;;;;;;;5061720;28;20035;-86
2021/06/08 18:58:10;;;;;;;0.10;0.10;;;;;;;;;;5078485;28;20402;-85
2021/06/08 19:00:36;;;;;;;0.10;0.10;;;;;;;;;;5084465;28;20043;-84
2021/06/08 19:03:02;;;;;;;0.10;0.10;;;;;;;;;;5078503;28;20106;-85
2021/06/08 19:05:29;;;;;;;0.10;0.10;;;;;;;;;;5086031;28;20032;-84
2021/06/08 19:07:55;;;;;;;0.10;0.10;;;;;;;;;;5071475;28;20152;-84
2021/06/08 19:10:21;;;;;;;0.10;0.10;;;;;;;;;;5064394;28;20031;-86
2021/06/08 19:12:48;;;;;;;0.10;0.10;;;;;;;;;;5069551;28;20055;-86
2021/06/08 19:15:14;;;;;;;0.10;0.10;;;;;;;;;;5070112;28;20024;-85
2021/06/08 19:17:43;;;;;;;0.10;0.10;;;;;;;;;;5078457;28;20034;-87
2021/06/08 19:20:09;;;;;;;0.10;0.10;;;;;;;;;;5087164;28;20097;-86
2021/06/08 19:22:37;;;;;;;0.10;0.10;;;;;;;;;;5079051;28;20371;-89
2021/06/08 19:25:05;;;;;;;0.10;0.10;;;;;;;;;;5087055;28;20042;-87
2021/06/08 19:27:31;;;;;;;0.10;0.10;;;;;;;;;;5077505;28;20130;-87
2021/06/08 19:30:00;;;;;;;0.10;0.10;;;;;;;;;;5088215;28;20024;-87
2021/06/08 19:32:26;;;;;;;0.10;0.10;;;;;;;;;;5076962;28;20118;-85
2021/06/08 19:34:52;;;;;;;0.00;0.00;;;;;;;;;;5087647;28;20035;-87
2021/06/08 19:37:19;;;;;;;0.10;0.10;;;;;;;;;;5076810;28;20031;-86
2021/06/08 19:39:45;;;;;;;0.00;0.00;;;;;;;;;;5087750;28;20066;-86
2021/06/08 19:42:11;;;;;;;0.10;0.10;;;;;;;;;;5076589;28;20474;-86
2021/06/08 19:44:40;;;;;;;0.10;0.10;;;;;;;;;;5089376;28;20055;-78
2021/06/08 19:47:06;;;;;;;0.10;0.10;;;;;;;;;;5075105;28;20274;-86
2021/06/08 19:49:32;;;;;;;0.10;0.10;;;;;;;;;;5068570;28;20040;-85
2021/06/08 19:51:59;;;;;;;0.10;0.10;;;;;;;;;;5077198;28;20028;-83
2021/06/08 19:54:25;;;;;;;0.10;0.10;;;;;;;;;;5068572;28;20021;-83
2021/06/08 19:56:51;;;;;;;0.10;0.10;;;;;;;;;;5073876;28;20032;-83
2021/06/08 19:59:17;;;;;;;0.10;0.10;;;;;;;;;;5087925;28;20115;-82
2021/06/08 20:01:43;;;;;;;0.10;0.10;;;;;;;;;;5077770;28;20033;-82
2021/06/08 20:04:09;;;;;;;0.10;0.10;;;;;;;;;;5086746;28;20154;-84
2021/06/08 20:06:35;;;;;;;0.10;0.10;;;;;;;;;;5078685;28;20036;-81
2021/06/08 20:09:01;;;;;;;0.10;0.10;;;;;;;;;;5085637;28;20024;-82
2021/06/08 20:11:27;;;;;;;0.10;0.10;;;;;;;;;;5081388;28;20032;-86
2021/06/08 20:13:54;;;;;;;0.10;0.10;;;;;;;;;;5088872;28;20024;-83
2021/06/08 20:16:20;;;;;;;0.10;0.10;;;;;;;;;;5083400;28;20032;-84
2021/06/08 20:18:46;;;;;;;0.10;0.10;;;;;;;;;;5087490;28;20020;-82
2021/06/08 20:21:13;;;;;;;0.10;0.10;;;;;;;;;;5085694;28;20043;-83
2021/06/08 20:23:40;;;;;;;0.30;0.30;;;;;;;;;;5086487;28;20266;-86
2021/06/08 20:26:06;;;;;;;0.10;0.10;;;;;;;;;;5086402;28;20401;-80
2021/06/08 20:28:32;;;;;;;1.80;1.70;;;;;;;;;;5084290;28;20024;-88
2021/06/08 20:30:59;;;;;;;0.10;0.10;;;;;;;;;;5088257;28;20039;-85
2021/06/08 20:33:25;;;;;;;0.10;0.10;;;;;;;;;;5084140;28;20496;-80
2021/06/08 20:35:52;;;;;;;0.10;0.10;;;;;;;;;;5088462;28;20462;-80
2021/06/08 20:38:17;;;;;;;;;;;;;;;;;;5083530;28;20119;-79
2021/06/08 20:40:44;;;;;;;0.10;0.10;;;;;;;;;;5086954;28;20019;-79
2021/06/08 20:43:11;;;;;;;0.10;0.10;;;;;;;;;;5082592;28;20016;-79
2021/06/08 20:45:37;;;;;;;;;;;;;;;;;;5084800;28;20539;-83
2021/06/08 20:48:03;;;;;;;0.10;0.10;;;;;;;;;;5080147;28;19908;-81
2021/06/08 20:50:29;;;;;;;0.10;0.10;;;;;;;;;;5073630;28;20135;-81
2021/06/08 20:52:56;;;;;;;0.10;0.10;;;;;;;;;;5081126;28;20032;-82
2021/06/08 20:55:22;;;;;;;0.10;0.10;;;;;;;;;;5084023;28;20042;-86
2021/06/08 20:57:49;;;;;;;0.10;0.10;;;;;;;;;;5085431;28;20028;-82
2021/06/08 21:00:15;;;;;;;0.43;0.43;;;;;;;;;;5091249;28;20126;-82
2021/06/08 21:02:41;;;;;;;0.10;0.10;;;;;;;;;;5084776;28;20036;-84
2021/06/08 21:05:08;;;;;;;0.10;0.10;;;;;;;;;;5092065;28;20075;-82
2021/06/08 21:07:34;;;;;;;0.10;0.10;;;;;;;;;;5083817;28;20477;-81
2021/06/08 21:10:01;;;;;;;0.10;0.10;;;;;;;;;;5092835;28;20031;-83
2021/06/08 21:12:27;;;;;;;0.10;0.10;;;;;;;;;;5082851;28;20024;-82
2021/06/08 21:14:53;;;;;;;0.10;0.10;;;;;;;;;;5093008;28;20024;-83
2021/06/08 21:17:19;;;;;;;0.10;0.10;;;;;;;;;;5082575;28;20020;-82
2021/06/08 21:19:45;;;;;;;0.10;0.10;;;;;;;;;;5093869;28;20135;-82
2021/06/08 21:22:11;;;;;;;0.10;0.10;;;;;;;;;;5085134;28;20035;-83
2021/06/08 21:24:37;;;;;;;0.10;0.10;;;;;;;;;;5072399;28;20089;-83
2021/06/08 21:27:04;;;;;;;0.10;0.10;;;;;;;;;;5080026;28;20037;-82
2021/06/08 21:29:30;;;;;;;0.10;0.10;;;;;;;;;;5093756;28;20605;-81
2021/06/08 21:31:57;;;;;;;0.10;0.10;;;;;;;;;;5080926;28;20090;-81
2021/06/08 21:34:23;;;;;;;0.10;0.10;;;;;;;;;;5092382;28;20105;-80
2021/06/08 21:36:49;;;;;;;0.10;0.10;;;;;;;;;;5081953;28;20048;-82
2021/06/08 21:39:15;;;;;;;0.10;0.10;;;;;;;;;;5092929;28;20031;-80
2021/06/08 21:41:44;;;;;;;0.10;0.10;;;;;;;;;;5087735;28;20024;-82
2021/06/08 21:44:14;;;;;;;0.10;0.10;;;;;;;;;;5073256;28;20024;-82
2021/06/08 21:46:40;;;;;;;0.32;0.32;;;;;;;;;;5078489;28;20050;-84
2021/06/08 21:49:06;;;;;;;0.17;0.17;;;;;;;;;;5091202;28;20460;-82
2021/06/08 21:51:32;;;;;;;0.10;0.10;;;;;;;;;;5083579;28;20036;-78
2021/06/08 21:53:59;;;;;;;0.10;0.10;;;;;;;;;;5090451;28;20017;-86
2021/06/08 21:56:25;;;;;;;0.10;0.10;;;;;;;;;;5083533;28;20475;-83
2021/06/08 21:58:51;;;;;;;0.10;0.10;;;;;;;;;;5089275;28;20024;-80
2021/06/08 22:01:17;;;;;;;0.10;0.10;;;;;;;;;;5085836;28;20075;-79
2021/06/08 22:03:44;;;;;;;0.10;0.10;;;;;;;;;;5087707;28;20107;-79
2021/06/08 22:06:10;;;;;;;0.10;0.10;;;;;;;;;;5085417;28;20483;-81
2021/06/08 22:08:37;;;;;;;6.05;5.63;;;;;;;;;;5086798;28;20027;-81
2021/06/08 22:11:03;;;;;;;0.10;0.10;;;;;;;;;;5087696;28;20024;-78
2021/06/08 22:13:29;;;;;;;0.10;0.10;;;;;;;;;;5085806;28;20498;-78
2021/06/08 22:15:55;;;;;;;0.00;0.00;;;;;;;;;;5088511;28;20032;-79
2021/06/08 22:18:21;;;;;;;0.10;0.10;;;;;;;;;;5084439;28;20024;-80
2021/06/08 22:20:48;;;;;;;0.10;0.10;;;;;;;;;;5089161;28;20547;-80
2021/06/08 22:23:15;;;;;;;0.10;0.10;;;;;;;;;;5083642;28;20028;-82
2021/06/08 22:25:41;;;;;;;0.10;0.10;;;;;;;;;;5089207;28;20024;-82
2021/06/08 22:28:07;;;;;;;0.70;0.70;;;;;;;;;;5082452;28;20058;-86
2021/06/08 22:30:33;;;;;;;0.10;0.10;;;;;;;;;;5089270;28;20028;-83
2021/06/08 22:32:59;;;;;;;0.50;0.50;;;;;;;;;;5080768;28;20020;-83
2021/06/08 22:35:25;;;;;;;0.10;0.10;;;;;;;;;;5075747;28;20045;-83
2021/06/08 22:37:52;;;;;;;0.10;0.10;;;;;;;;;;5081421;28;20082;-82
2021/06/08 22:40:19;;;;;;;0.10;0.10;;;;;;;;;;5071940;28;20510;-87
2021/06/08 22:42:45;;;;;;;0.05;0.05;;;;;;;;;;5089261;28;20430;-84
2021/06/08 22:45:12;;;;;;;0.05;0.05;;;;;;;;;;5073608;28;20386;-89
2021/06/08 22:47:38;;;;;;;0.10;0.10;;;;;;;;;;5082009;28;20542;-87
2021/06/08 22:50:05;;;;;;;0.10;0.10;;;;;;;;;;5071615;28;20056;-82
2021/06/08 22:52:31;;;;;;;;;;;;;;;;;;5082558;28;20500;-86
2021/06/08 22:54:57;;;;;;;0.10;0.10;;;;;;;;;;5090132;28;19908;-84
2021/06/08 22:57:23;;;;;;;0.10;0.10;;;;;;;;;;5078518;28;20059;-84
2021/06/08 22:59:49;;;;;;;0.10;0.10;;;;;;;;;;5090759;28;20036;-84
2021/06/08 23:02:15;;;;;;;0.10;0.10;;;;;;;;;;5079013;28;20043;-88
2021/06/08 23:04:41;;;;;;;0.13;0.13;;;;;;;;;;5092607;28;20039;-84
2021/06/08 23:07:07;;;;;;;0.25;0.25;;;;;;;;;;5078454;28;20395;-85
2021/06/08 23:09:34;;;;;;;0.10;0.10;;;;;;;;;;5091959;28;20534;-79
2021/06/08 23:12:00;;;;;;;48.97;40.73;;;;;;;;;;5077845;28;20034;-79
2021/06/08 23:14:26;;;;;;;0.10;0.10;;;;;;;;;;5067351;28;20025;-79
2021/06/08 23:16:52;;;;;;;0.10;0.10;;;;;;;;;;5072811;28;20024;-79
2021/06/08 23:19:19;;;;;;;0.10;0.10;;;;;;;;;;5091206;28;20436;-79
2021/06/08 23:21:45;;;;;;;0.10;0.10;;;;;;;;;;5080418;28;20029;-79
2021/06/08 23:24:11;;;;;;;0.10;0.10;;;;;;;;;;5090258;28;20644;-79
2021/06/08 23:26:38;;;;;;;0.10;0.10;;;;;;;;;;5081334;28;20111;-79
2021/06/08 23:29:05;;;;;;;0.10;0.10;;;;;;;;;;5089278;28;20020;-79
2021/06/08 23:31:32;;;;;;;0.10;0.10;;;;;;;;;;5084409;28;20015;-79
2021/06/08 23:33:58;;;;;;;0.45;0.45;;;;;;;;;;5074043;28;20356;-79
2021/06/08 23:36:24;;;;;;;0.10;0.10;;;;;;;;;;5076393;28;20025;-79
2021/06/08 23:38:51;;;;;;;0.10;0.10;;;;;;;;;;5086283;28;20078;-79
2021/06/08 23:41:17;;;;;;;0.10;0.10;;;;;;;;;;5082551;28;20491;-79
2021/06/08 23:43:43;;;;;;;0.10;0.10;;;;;;;;;;5086021;28;20514;-79
2021/06/08 23:46:12;;;;;;;0.10;0.10;;;;;;;;;;5085000;28;20028;-79
2021/06/08 23:48:38;;;;;;;0.10;0.10;;;;;;;;;;5085121;28;20027;-79
2021/06/08 23:51:05;;;;;;;0.10;0.10;;;;;;;;;;5084146;28;20422;-79
2021/06/08 23:53:31;;;;;;;0.10;0.10;;;;;;;;;;5083125;28;20492;-80
2021/06/08 23:55:59;;;;;;;0.10;0.10;;;;;;;;;;5085271;28;20050;-79
2021/06/08 23:58:25;;;;;;;0.10;0.10;;;;;;;;;;5083665;28;20060;-79
